sensor_id;sensor_type;location;lat;lon;timestamp;P1;durP1;ratioP1;P2;durP2;ratioP2
46086;SDS011;31824;49.648;8.640;2022-09-13T00:00:03;4.50;;;1.13;;
46086;SDS011;31824;49.648;8.640;2022-09-13T00:03:07;2.35;;;0.90;;
46086;SDS011;31824;49.648;8.640;2022-09-13T00:06:10;2.60;;;1.10;;
46086;SDS011;31824;49.648;8.640;2022-09-13T00:09:14;3.80;;;1.05;;
46086;SDS011;31824;49.648;8.640;2022-09-13T00:12:17;1.88;;;0.90;;
46086;SDS011;31824;49.648;8.640;2022-09-13T00:15:19;2.08;;;1.00;;
46086;SDS011;31824;49.648;8.640;2022-09-13T00:18:21;2.15;;;1.08;;
46086;SDS011;31824;49.648;8.640;2022-09-13T00:21:23;2.20;;;1.00;;
46086;SDS011;31824;49.648;8.640;2022-09-13T00:24:25;2.03;;;1.08;;
46086;SDS011;31824;49.648;8.640;2022-09-13T00:27:28;1.63;;;0.80;;
46086;SDS011;31824;49.648;8.640;2022-09-13T00:30:30;1.88;;;1.08;;
46086;SDS011;31824;49.648;8.640;2022-09-13T00:33:32;2.38;;;1.00;;
46086;SDS011;31824;49.648;8.640;2022-09-13T00:36:34;1.92;;;0.95;;
46086;SDS011;31824;49.648;8.640;2022-09-13T00:39:35;2.75;;;1.20;;
46086;SDS011;31824;49.648;8.640;2022-09-13T00:42:38;1.80;;;1.00;;
46086;SDS011;31824;49.648;8.640;2022-09-13T00:45:40;3.42;;;1.05;;
46086;SDS011;31824;49.648;8.640;2022-09-13T00:48:42;3.60;;;1.05;;
46086;SDS011;31824;49.648;8.640;2022-09-13T00:51:48;2.75;;;1.10;;
46086;SDS011;31824;49.648;8.640;2022-09-13T00:54:54;1.73;;;1.00;;
46086;SDS011;31824;49.648;8.640;2022-09-13T00:58:01;2.13;;;1.13;;
46086;SDS011;31824;49.648;8.640;2022-09-13T01:01:06;2.25;;;0.95;;
46086;SDS011;31824;49.648;8.640;2022-09-13T01:07:13;2.58;;;0.98;;
46086;SDS011;31824;49.648;8.640;2022-09-13T01:10:18;1.73;;;0.82;;
46086;SDS011;31824;49.648;8.640;2022-09-13T01:13:22;2.03;;;1.00;;
46086;SDS011;31824;49.648;8.640;2022-09-13T01:16:26;4.35;;;1.10;;
46086;SDS011;31824;49.648;8.640;2022-09-13T01:19:27;2.20;;;1.20;;
46086;SDS011;31824;49.648;8.640;2022-09-13T01:22:34;1.60;;;0.80;;
46086;SDS011;31824;49.648;8.640;2022-09-13T01:25:49;2.30;;;0.90;;
46086;SDS011;31824;49.648;8.640;2022-09-13T01:36:23;1.70;;;1.00;;
46086;SDS011;31824;49.648;8.640;2022-09-13T01:39:48;1.92;;;0.93;;
46086;SDS011;31824;49.648;8.640;2022-09-13T01:43:05;1.85;;;0.90;;
46086;SDS011;31824;49.648;8.640;2022-09-13T01:46:21;2.10;;;0.95;;
46086;SDS011;31824;49.648;8.640;2022-09-13T01:49:29;3.15;;;1.00;;
46086;SDS011;31824;49.648;8.640;2022-09-13T01:52:36;2.75;;;1.00;;
46086;SDS011;31824;49.648;8.640;2022-09-13T01:55:45;2.60;;;0.90;;
46086;SDS011;31824;49.648;8.640;2022-09-13T01:58:51;1.65;;;1.00;;
46086;SDS011;31824;49.648;8.640;2022-09-13T02:01:58;2.22;;;0.90;;
46086;SDS011;31824;49.648;8.640;2022-09-13T02:05:06;2.15;;;0.85;;
46086;SDS011;31824;49.648;8.640;2022-09-13T02:08:14;2.97;;;1.10;;
46086;SDS011;31824;49.648;8.640;2022-09-13T02:11:20;2.95;;;0.90;;
46086;SDS011;31824;49.648;8.640;2022-09-13T02:14:23;3.85;;;0.93;;
46086;SDS011;31824;49.648;8.640;2022-09-13T02:17:31;2.97;;;0.98;;
46086;SDS011;31824;49.648;8.640;2022-09-13T02:20:39;2.63;;;0.93;;
46086;SDS011;31824;49.648;8.640;2022-09-13T02:23:46;2.72;;;0.93;;
46086;SDS011;31824;49.648;8.640;2022-09-13T02:26:51;2.28;;;1.17;;
46086;SDS011;31824;49.648;8.640;2022-09-13T02:29:57;5.07;;;0.82;;
46086;SDS011;31824;49.648;8.640;2022-09-13T02:33:03;1.42;;;0.65;;
46086;SDS011;31824;49.648;8.640;2022-09-13T02:36:13;7.47;;;1.20;;
46086;SDS011;31824;49.648;8.640;2022-09-13T02:39:19;1.88;;;1.02;;
46086;SDS011;31824;49.648;8.640;2022-09-13T02:42:25;4.57;;;1.20;;
46086;SDS011;31824;49.648;8.640;2022-09-13T02:45:32;4.78;;;0.95;;
46086;SDS011;31824;49.648;8.640;2022-09-13T02:48:46;1.50;;;0.80;;
46086;SDS011;31824;49.648;8.640;2022-09-13T02:51:59;1.40;;;0.70;;
46086;SDS011;31824;49.648;8.640;2022-09-13T02:55:13;2.17;;;1.13;;
46086;SDS011;31824;49.648;8.640;2022-09-13T02:58:20;1.83;;;0.93;;
46086;SDS011;31824;49.648;8.640;2022-09-13T03:01:27;3.63;;;0.98;;
46086;SDS011;31824;49.648;8.640;2022-09-13T03:04:29;1.58;;;0.82;;
46086;SDS011;31824;49.648;8.640;2022-09-13T03:07:34;2.75;;;0.93;;
46086;SDS011;31824;49.648;8.640;2022-09-13T03:10:39;2.83;;;1.10;;
46086;SDS011;31824;49.648;8.640;2022-09-13T03:13:52;2.47;;;0.90;;
46086;SDS011;31824;49.648;8.640;2022-09-13T03:17:11;1.83;;;0.98;;
46086;SDS011;31824;49.648;8.640;2022-09-13T03:20:17;2.28;;;1.00;;
46086;SDS011;31824;49.648;8.640;2022-09-13T03:23:39;2.10;;;1.00;;
46086;SDS011;31824;49.648;8.640;2022-09-13T03:26:50;1.92;;;0.98;;
46086;SDS011;31824;49.648;8.640;2022-09-13T03:33:09;1.42;;;0.85;;
46086;SDS011;31824;49.648;8.640;2022-09-13T03:36:18;1.88;;;1.13;;
46086;SDS011;31824;49.648;8.640;2022-09-13T03:39:28;2.42;;;1.25;;
46086;SDS011;31824;49.648;8.640;2022-09-13T03:42:36;2.53;;;1.13;;
46086;SDS011;31824;49.648;8.640;2022-09-13T03:45:45;2.08;;;0.98;;
46086;SDS011;31824;49.648;8.640;2022-09-13T03:48:50;1.25;;;0.75;;
46086;SDS011;31824;49.648;8.640;2022-09-13T03:51:54;3.70;;;1.13;;
46086;SDS011;31824;49.648;8.640;2022-09-13T03:54:58;1.85;;;1.02;;
46086;SDS011;31824;49.648;8.640;2022-09-13T03:57:59;2.63;;;1.15;;
46086;SDS011;31824;49.648;8.640;2022-09-13T04:01:01;2.28;;;1.02;;
46086;SDS011;31824;49.648;8.640;2022-09-13T04:04:03;2.88;;;1.48;;
46086;SDS011;31824;49.648;8.640;2022-09-13T04:07:04;4.68;;;1.25;;
46086;SDS011;31824;49.648;8.640;2022-09-13T04:10:08;2.95;;;1.35;;
46086;SDS011;31824;49.648;8.640;2022-09-13T04:13:14;2.20;;;1.00;;
46086;SDS011;31824;49.648;8.640;2022-09-13T04:16:16;3.85;;;1.10;;
46086;SDS011;31824;49.648;8.640;2022-09-13T04:19:18;2.00;;;1.00;;
46086;SDS011;31824;49.648;8.640;2022-09-13T04:22:19;2.63;;;1.05;;
46086;SDS011;31824;49.648;8.640;2022-09-13T04:25:22;1.92;;;1.00;;
46086;SDS011;31824;49.648;8.640;2022-09-13T04:28:24;2.13;;;1.00;;
46086;SDS011;31824;49.648;8.640;2022-09-13T04:31:26;2.65;;;1.17;;
46086;SDS011;31824;49.648;8.640;2022-09-13T04:34:28;1.60;;;0.80;;
46086;SDS011;31824;49.648;8.640;2022-09-13T04:37:30;2.33;;;1.10;;
46086;SDS011;31824;49.648;8.640;2022-09-13T04:40:33;2.40;;;0.85;;
46086;SDS011;31824;49.648;8.640;2022-09-13T04:43:35;2.03;;;1.15;;
46086;SDS011;31824;49.648;8.640;2022-09-13T04:46:37;2.17;;;1.08;;
46086;SDS011;31824;49.648;8.640;2022-09-13T04:49:39;2.20;;;0.93;;
46086;SDS011;31824;49.648;8.640;2022-09-13T04:52:40;1.63;;;0.80;;
46086;SDS011;31824;49.648;8.640;2022-09-13T04:55:43;2.80;;;1.27;;
46086;SDS011;31824;49.648;8.640;2022-09-13T04:58:45;1.75;;;0.85;;
46086;SDS011;31824;49.648;8.640;2022-09-13T05:01:47;2.03;;;0.90;;
46086;SDS011;31824;49.648;8.640;2022-09-13T05:04:48;2.05;;;1.05;;
46086;SDS011;31824;49.648;8.640;2022-09-13T05:07:50;3.42;;;1.27;;
46086;SDS011;31824;49.648;8.640;2022-09-13T05:10:54;1.77;;;1.00;;
46086;SDS011;31824;49.648;8.640;2022-09-13T05:13:56;2.72;;;1.45;;
46086;SDS011;31824;49.648;8.640;2022-09-13T05:17:00;1.83;;;0.98;;
46086;SDS011;31824;49.648;8.640;2022-09-13T05:20:02;2.22;;;1.10;;
46086;SDS011;31824;49.648;8.640;2022-09-13T05:23:05;2.10;;;1.10;;
46086;SDS011;31824;49.648;8.640;2022-09-13T05:26:09;1.95;;;0.73;;
46086;SDS011;31824;49.648;8.640;2022-09-13T05:29:11;3.70;;;1.00;;
46086;SDS011;31824;49.648;8.640;2022-09-13T05:32:12;3.15;;;1.02;;
46086;SDS011;31824;49.648;8.640;2022-09-13T05:35:14;2.33;;;0.90;;
46086;SDS011;31824;49.648;8.640;2022-09-13T05:38:16;2.22;;;1.00;;
46086;SDS011;31824;49.648;8.640;2022-09-13T05:41:20;4.38;;;1.17;;
46086;SDS011;31824;49.648;8.640;2022-09-13T05:44:21;2.90;;;1.02;;
46086;SDS011;31824;49.648;8.640;2022-09-13T05:47:23;2.28;;;1.10;;
46086;SDS011;31824;49.648;8.640;2022-09-13T05:50:25;1.83;;;0.82;;
46086;SDS011;31824;49.648;8.640;2022-09-13T05:53:47;2.38;;;1.23;;
46086;SDS011;31824;49.648;8.640;2022-09-13T05:56:51;2.80;;;1.20;;
46086;SDS011;31824;49.648;8.640;2022-09-13T05:59:57;2.88;;;1.15;;
46086;SDS011;31824;49.648;8.640;2022-09-13T06:02:59;1.90;;;0.90;;
46086;SDS011;31824;49.648;8.640;2022-09-13T06:06:01;3.67;;;1.50;;
46086;SDS011;31824;49.648;8.640;2022-09-13T06:09:04;3.25;;;1.17;;
46086;SDS011;31824;49.648;8.640;2022-09-13T06:12:09;2.25;;;1.17;;
46086;SDS011;31824;49.648;8.640;2022-09-13T06:15:11;3.75;;;1.15;;
46086;SDS011;31824;49.648;8.640;2022-09-13T06:18:13;5.18;;;1.08;;
46086;SDS011;31824;49.648;8.640;2022-09-13T06:21:16;4.00;;;1.17;;
46086;SDS011;31824;49.648;8.640;2022-09-13T06:24:18;2.03;;;0.95;;
46086;SDS011;31824;49.648;8.640;2022-09-13T06:27:21;2.10;;;1.10;;
46086;SDS011;31824;49.648;8.640;2022-09-13T06:30:23;2.15;;;1.08;;
46086;SDS011;31824;49.648;8.640;2022-09-13T06:33:25;2.30;;;1.00;;
46086;SDS011;31824;49.648;8.640;2022-09-13T06:36:26;2.67;;;1.23;;
46086;SDS011;31824;49.648;8.640;2022-09-13T06:39:28;2.22;;;1.20;;
46086;SDS011;31824;49.648;8.640;2022-09-13T06:42:34;2.28;;;1.15;;
46086;SDS011;31824;49.648;8.640;2022-09-13T06:45:36;4.05;;;1.27;;
46086;SDS011;31824;49.648;8.640;2022-09-13T06:48:38;2.15;;;1.10;;
46086;SDS011;31824;49.648;8.640;2022-09-13T06:51:40;3.30;;;1.00;;
46086;SDS011;31824;49.648;8.640;2022-09-13T06:54:42;3.80;;;1.20;;
46086;SDS011;31824;49.648;8.640;2022-09-13T06:57:45;2.78;;;1.27;;
46086;SDS011;31824;49.648;8.640;2022-09-13T07:00:47;11.15;;;1.35;;
46086;SDS011;31824;49.648;8.640;2022-09-13T07:03:53;2.25;;;1.23;;
46086;SDS011;31824;49.648;8.640;2022-09-13T07:06:58;2.53;;;1.25;;
46086;SDS011;31824;49.648;8.640;2022-09-13T07:10:00;3.03;;;1.42;;
46086;SDS011;31824;49.648;8.640;2022-09-13T07:13:03;2.47;;;1.20;;
46086;SDS011;31824;49.648;8.640;2022-09-13T07:16:06;3.20;;;1.20;;
46086;SDS011;31824;49.648;8.640;2022-09-13T07:19:11;1.45;;;0.80;;
46086;SDS011;31824;49.648;8.640;2022-09-13T07:22:14;2.85;;;1.25;;
46086;SDS011;31824;49.648;8.640;2022-09-13T07:25:15;3.15;;;1.40;;
46086;SDS011;31824;49.648;8.640;2022-09-13T07:28:18;3.47;;;1.52;;
46086;SDS011;31824;49.648;8.640;2022-09-13T07:31:23;2.97;;;1.38;;
46086;SDS011;31824;49.648;8.640;2022-09-13T07:34:26;3.50;;;1.67;;
46086;SDS011;31824;49.648;8.640;2022-09-13T07:37:28;3.85;;;1.70;;
46086;SDS011;31824;49.648;8.640;2022-09-13T07:40:30;3.20;;;1.35;;
46086;SDS011;31824;49.648;8.640;2022-09-13T07:43:34;3.60;;;1.33;;
46086;SDS011;31824;49.648;8.640;2022-09-13T07:46:37;3.40;;;1.80;;
46086;SDS011;31824;49.648;8.640;2022-09-13T07:49:44;3.13;;;1.73;;
46086;SDS011;31824;49.648;8.640;2022-09-13T07:52:45;4.10;;;1.90;;
46086;SDS011;31824;49.648;8.640;2022-09-13T07:55:47;5.22;;;1.95;;
46086;SDS011;31824;49.648;8.640;2022-09-13T07:58:50;3.65;;;1.77;;
46086;SDS011;31824;49.648;8.640;2022-09-13T08:01:55;4.10;;;1.92;;
46086;SDS011;31824;49.648;8.640;2022-09-13T08:04:58;4.30;;;2.00;;
46086;SDS011;31824;49.648;8.640;2022-09-13T08:07:59;4.22;;;1.90;;
46086;SDS011;31824;49.648;8.640;2022-09-13T08:11:02;6.30;;;1.83;;
46086;SDS011;31824;49.648;8.640;2022-09-13T08:14:06;4.60;;;2.08;;
46086;SDS011;31824;49.648;8.640;2022-09-13T08:17:10;4.60;;;2.40;;
46086;SDS011;31824;49.648;8.640;2022-09-13T08:20:12;3.55;;;1.58;;
46086;SDS011;31824;49.648;8.640;2022-09-13T08:23:14;4.68;;;2.10;;
46086;SDS011;31824;49.648;8.640;2022-09-13T08:26:16;7.55;;;1.92;;
46086;SDS011;31824;49.648;8.640;2022-09-13T08:29:19;6.90;;;2.30;;
46086;SDS011;31824;49.648;8.640;2022-09-13T08:32:20;3.67;;;1.75;;
46086;SDS011;31824;49.648;8.640;2022-09-13T08:35:22;4.60;;;2.28;;
46086;SDS011;31824;49.648;8.640;2022-09-13T08:38:24;3.67;;;1.70;;
46086;SDS011;31824;49.648;8.640;2022-09-13T08:41:41;3.65;;;1.95;;
46086;SDS011;31824;49.648;8.640;2022-09-13T08:44:54;3.40;;;1.75;;
46086;SDS011;31824;49.648;8.640;2022-09-13T08:47:58;5.78;;;2.20;;
46086;SDS011;31824;49.648;8.640;2022-09-13T08:51:03;4.78;;;2.03;;
46086;SDS011;31824;49.648;8.640;2022-09-13T08:54:08;4.47;;;2.13;;
46086;SDS011;31824;49.648;8.640;2022-09-13T08:57:13;5.65;;;2.28;;
46086;SDS011;31824;49.648;8.640;2022-09-13T09:00:24;5.07;;;2.58;;
46086;SDS011;31824;49.648;8.640;2022-09-13T09:03:36;3.58;;;1.98;;
46086;SDS011;31824;49.648;8.640;2022-09-13T09:06:43;4.30;;;2.28;;
46086;SDS011;31824;49.648;8.640;2022-09-13T09:09:46;4.43;;;2.40;;
46086;SDS011;31824;49.648;8.640;2022-09-13T09:12:51;6.40;;;2.78;;
46086;SDS011;31824;49.648;8.640;2022-09-13T09:15:59;5.97;;;2.20;;
46086;SDS011;31824;49.648;8.640;2022-09-13T09:19:05;5.07;;;2.25;;
46086;SDS011;31824;49.648;8.640;2022-09-13T09:22:17;3.70;;;2.15;;
46086;SDS011;31824;49.648;8.640;2022-09-13T09:25:22;4.00;;;2.20;;
46086;SDS011;31824;49.648;8.640;2022-09-13T09:28:26;5.05;;;2.53;;
46086;SDS011;31824;49.648;8.640;2022-09-13T09:31:35;6.05;;;2.38;;
46086;SDS011;31824;49.648;8.640;2022-09-13T09:34:47;5.22;;;2.58;;
46086;SDS011;31824;49.648;8.640;2022-09-13T09:38:04;4.75;;;2.33;;
46086;SDS011;31824;49.648;8.640;2022-09-13T09:41:19;5.75;;;2.63;;
46086;SDS011;31824;49.648;8.640;2022-09-13T09:44:28;4.95;;;2.45;;
46086;SDS011;31824;49.648;8.640;2022-09-13T09:47:41;4.88;;;2.58;;
46086;SDS011;31824;49.648;8.640;2022-09-13T09:50:46;8.70;;;2.97;;
46086;SDS011;31824;49.648;8.640;2022-09-13T09:53:52;5.50;;;2.90;;
46086;SDS011;31824;49.648;8.640;2022-09-13T10:00:09;6.57;;;2.88;;
46086;SDS011;31824;49.648;8.640;2022-09-13T10:03:16;5.63;;;2.53;;
46086;SDS011;31824;49.648;8.640;2022-09-13T10:06:21;5.88;;;2.92;;
46086;SDS011;31824;49.648;8.640;2022-09-13T10:09:24;5.75;;;2.55;;
46086;SDS011;31824;49.648;8.640;2022-09-13T10:12:28;6.07;;;2.67;;
46086;SDS011;31824;49.648;8.640;2022-09-13T10:15:34;4.30;;;2.33;;
46086;SDS011;31824;49.648;8.640;2022-09-13T10:18:37;5.60;;;2.70;;
46086;SDS011;31824;49.648;8.640;2022-09-13T10:21:54;10.32;;;2.30;;
46086;SDS011;31824;49.648;8.640;2022-09-13T10:25:12;4.82;;;2.50;;
46086;SDS011;31824;49.648;8.640;2022-09-13T10:28:15;4.60;;;2.00;;
46086;SDS011;31824;49.648;8.640;2022-09-13T10:31:19;3.58;;;1.90;;
46086;SDS011;31824;49.648;8.640;2022-09-13T10:34:29;3.85;;;1.90;;
46086;SDS011;31824;49.648;8.640;2022-09-13T10:37:33;4.75;;;1.98;;
46086;SDS011;31824;49.648;8.640;2022-09-13T10:40:36;5.50;;;2.17;;
46086;SDS011;31824;49.648;8.640;2022-09-13T10:43:39;5.03;;;2.13;;
46086;SDS011;31824;49.648;8.640;2022-09-13T10:46:41;5.55;;;2.25;;
46086;SDS011;31824;49.648;8.640;2022-09-13T10:49:45;4.30;;;2.03;;
46086;SDS011;31824;49.648;8.640;2022-09-13T10:52:49;4.38;;;2.20;;
46086;SDS011;31824;49.648;8.640;2022-09-13T10:55:51;4.78;;;2.40;;
46086;SDS011;31824;49.648;8.640;2022-09-13T10:58:55;5.88;;;2.60;;
46086;SDS011;31824;49.648;8.640;2022-09-13T11:05:46;6.28;;;3.42;;
46086;SDS011;31824;49.648;8.640;2022-09-13T11:08:55;6.03;;;2.83;;
46086;SDS011;31824;49.648;8.640;2022-09-13T11:15:16;8.30;;;3.80;;
46086;SDS011;31824;49.648;8.640;2022-09-13T11:18:34;7.00;;;3.00;;
46086;SDS011;31824;49.648;8.640;2022-09-13T11:25:13;5.60;;;3.00;;
46086;SDS011;31824;49.648;8.640;2022-09-13T11:28:33;7.18;;;3.45;;
46086;SDS011;31824;49.648;8.640;2022-09-13T11:34:58;5.57;;;3.05;;
46086;SDS011;31824;49.648;8.640;2022-09-13T11:38:21;6.07;;;3.15;;
46086;SDS011;31824;49.648;8.640;2022-09-13T11:41:37;5.65;;;3.20;;
46086;SDS011;31824;49.648;8.640;2022-09-13T11:48:35;5.28;;;2.70;;
46086;SDS011;31824;49.648;8.640;2022-09-13T11:51:54;4.68;;;2.47;;
46086;SDS011;31824;49.648;8.640;2022-09-13T11:55:10;5.97;;;2.67;;
46086;SDS011;31824;49.648;8.640;2022-09-13T11:58:17;6.03;;;2.88;;
46086;SDS011;31824;49.648;8.640;2022-09-13T12:01:24;4.75;;;2.58;;
46086;SDS011;31824;49.648;8.640;2022-09-13T12:04:34;4.38;;;2.20;;
46086;SDS011;31824;49.648;8.640;2022-09-13T12:07:44;5.75;;;2.22;;
46086;SDS011;31824;49.648;8.640;2022-09-13T12:10:51;5.45;;;2.30;;
46086;SDS011;31824;49.648;8.640;2022-09-13T12:13:56;4.72;;;2.17;;
46086;SDS011;31824;49.648;8.640;2022-09-13T12:17:01;3.35;;;1.77;;
46086;SDS011;31824;49.648;8.640;2022-09-13T12:20:11;3.72;;;1.90;;
46086;SDS011;31824;49.648;8.640;2022-09-13T12:23:18;3.53;;;1.83;;
46086;SDS011;31824;49.648;8.640;2022-09-13T12:26:28;3.25;;;1.75;;
46086;SDS011;31824;49.648;8.640;2022-09-13T12:29:34;5.40;;;1.70;;
46086;SDS011;31824;49.648;8.640;2022-09-13T12:32:40;3.97;;;1.85;;
46086;SDS011;31824;49.648;8.640;2022-09-13T12:39:00;3.20;;;1.38;;
46086;SDS011;31824;49.648;8.640;2022-09-13T12:46:08;3.60;;;1.55;;
46086;SDS011;31824;49.648;8.640;2022-09-13T12:53:08;2.38;;;1.17;;
46086;SDS011;31824;49.648;8.640;2022-09-13T12:56:27;1.88;;;1.00;;
46086;SDS011;31824;49.648;8.640;2022-09-13T12:59:42;1.90;;;1.00;;
46086;SDS011;31824;49.648;8.640;2022-09-13T13:03:04;3.72;;;1.45;;
46086;SDS011;31824;49.648;8.640;2022-09-13T13:06:19;3.80;;;1.15;;
46086;SDS011;31824;49.648;8.640;2022-09-13T13:09:30;2.95;;;1.50;;
46086;SDS011;31824;49.648;8.640;2022-09-13T13:12:39;2.10;;;1.10;;
46086;SDS011;31824;49.648;8.640;2022-09-13T13:15:57;3.15;;;1.17;;
46086;SDS011;31824;49.648;8.640;2022-09-13T13:19:01;3.72;;;1.52;;
46086;SDS011;31824;49.648;8.640;2022-09-13T13:25:52;3.75;;;1.30;;
46086;SDS011;31824;49.648;8.640;2022-09-13T13:32:19;4.60;;;1.48;;
46086;SDS011;31824;49.648;8.640;2022-09-13T13:35:24;2.60;;;1.45;;
46086;SDS011;31824;49.648;8.640;2022-09-13T13:38:58;3.17;;;1.70;;
46086;SDS011;31824;49.648;8.640;2022-09-13T13:42:03;1.92;;;0.98;;
46086;SDS011;31824;49.648;8.640;2022-09-13T13:45:15;2.92;;;1.50;;
46086;SDS011;31824;49.648;8.640;2022-09-13T13:48:34;2.47;;;1.13;;
46086;SDS011;31824;49.648;8.640;2022-09-13T13:51:39;2.05;;;1.25;;
46086;SDS011;31824;49.648;8.640;2022-09-13T13:54:57;3.47;;;1.33;;
46086;SDS011;31824;49.648;8.640;2022-09-13T13:58:01;2.65;;;1.20;;
46086;SDS011;31824;49.648;8.640;2022-09-13T14:01:10;3.80;;;1.30;;
46086;SDS011;31824;49.648;8.640;2022-09-13T14:11:34;2.63;;;1.27;;
46086;SDS011;31824;49.648;8.640;2022-09-13T14:15:00;2.13;;;1.10;;
46086;SDS011;31824;49.648;8.640;2022-09-13T14:22:04;3.58;;;1.60;;
46086;SDS011;31824;49.648;8.640;2022-09-13T14:25:22;3.05;;;1.10;;
46086;SDS011;31824;49.648;8.640;2022-09-13T14:28:25;2.42;;;1.20;;
46086;SDS011;31824;49.648;8.640;2022-09-13T14:31:27;2.00;;;1.25;;
46086;SDS011;31824;49.648;8.640;2022-09-13T14:34:30;3.50;;;1.23;;
46086;SDS011;31824;49.648;8.640;2022-09-13T14:37:34;2.13;;;1.08;;
46086;SDS011;31824;49.648;8.640;2022-09-13T14:40:39;2.85;;;1.30;;
46086;SDS011;31824;49.648;8.640;2022-09-13T14:43:41;2.30;;;1.15;;
46086;SDS011;31824;49.648;8.640;2022-09-13T14:46:44;2.30;;;1.20;;
46086;SDS011;31824;49.648;8.640;2022-09-13T14:49:56;3.25;;;1.33;;
46086;SDS011;31824;49.648;8.640;2022-09-13T14:53:01;2.03;;;1.15;;
46086;SDS011;31824;49.648;8.640;2022-09-13T14:56:07;3.80;;;1.00;;
46086;SDS011;31824;49.648;8.640;2022-09-13T14:59:16;2.33;;;1.05;;
46086;SDS011;31824;49.648;8.640;2022-09-13T15:02:26;2.88;;;1.13;;
46086;SDS011;31824;49.648;8.640;2022-09-13T15:05:32;2.65;;;1.27;;
46086;SDS011;31824;49.648;8.640;2022-09-13T15:08:43;3.03;;;1.30;;
46086;SDS011;31824;49.648;8.640;2022-09-13T15:11:58;2.33;;;1.33;;
46086;SDS011;31824;49.648;8.640;2022-09-13T15:15:21;3.60;;;1.38;;
46086;SDS011;31824;49.648;8.640;2022-09-13T15:18:29;2.25;;;1.00;;
46086;SDS011;31824;49.648;8.640;2022-09-13T15:21:37;2.83;;;1.23;;
46086;SDS011;31824;49.648;8.640;2022-09-13T15:24:42;2.20;;;1.00;;
46086;SDS011;31824;49.648;8.640;2022-09-13T15:27:47;1.75;;;0.90;;
46086;SDS011;31824;49.648;8.640;2022-09-13T15:30:50;2.80;;;1.02;;
46086;SDS011;31824;49.648;8.640;2022-09-13T15:37:14;1.98;;;1.02;;
46086;SDS011;31824;49.648;8.640;2022-09-13T15:40:17;2.40;;;1.05;;
46086;SDS011;31824;49.648;8.640;2022-09-13T15:43:22;3.60;;;1.00;;
46086;SDS011;31824;49.648;8.640;2022-09-13T15:46:24;1.75;;;1.00;;
46086;SDS011;31824;49.648;8.640;2022-09-13T15:49:27;1.67;;;1.00;;
46086;SDS011;31824;49.648;8.640;2022-09-13T15:52:32;4.75;;;1.20;;
46086;SDS011;31824;49.648;8.640;2022-09-13T15:55:34;1.45;;;0.90;;
46086;SDS011;31824;49.648;8.640;2022-09-13T15:58:41;2.35;;;1.02;;
46086;SDS011;31824;49.648;8.640;2022-09-13T16:01:43;2.03;;;1.05;;
46086;SDS011;31824;49.648;8.640;2022-09-13T16:04:45;3.67;;;1.52;;
46086;SDS011;31824;49.648;8.640;2022-09-13T16:07:48;3.00;;;1.40;;
46086;SDS011;31824;49.648;8.640;2022-09-13T16:10:50;3.90;;;1.27;;
46086;SDS011;31824;49.648;8.640;2022-09-13T16:13:54;4.72;;;1.60;;
46086;SDS011;31824;49.648;8.640;2022-09-13T16:16:55;2.42;;;1.00;;
46086;SDS011;31824;49.648;8.640;2022-09-13T16:19:57;3.33;;;1.10;;
46086;SDS011;31824;49.648;8.640;2022-09-13T16:22:59;2.45;;;1.00;;
46086;SDS011;31824;49.648;8.640;2022-09-13T16:26:01;1.35;;;0.70;;
46086;SDS011;31824;49.648;8.640;2022-09-13T16:29:06;2.40;;;0.77;;
46086;SDS011;31824;49.648;8.640;2022-09-13T16:32:09;2.70;;;0.60;;
46086;SDS011;31824;49.648;8.640;2022-09-13T16:35:11;1.42;;;0.60;;
46086;SDS011;31824;49.648;8.640;2022-09-13T16:38:13;0.70;;;0.40;;
46086;SDS011;31824;49.648;8.640;2022-09-13T16:41:15;1.77;;;0.77;;
46086;SDS011;31824;49.648;8.640;2022-09-13T16:44:18;0.63;;;0.35;;
46086;SDS011;31824;49.648;8.640;2022-09-13T16:47:19;1.23;;;0.50;;
46086;SDS011;31824;49.648;8.640;2022-09-13T16:50:21;0.77;;;0.50;;
46086;SDS011;31824;49.648;8.640;2022-09-13T16:53:23;2.38;;;0.52;;
46086;SDS011;31824;49.648;8.640;2022-09-13T16:56:25;1.08;;;0.50;;
46086;SDS011;31824;49.648;8.640;2022-09-13T16:59:28;3.00;;;0.60;;
46086;SDS011;31824;49.648;8.640;2022-09-13T17:02:30;2.03;;;0.40;;
46086;SDS011;31824;49.648;8.640;2022-09-13T17:05:32;1.63;;;0.68;;
46086;SDS011;31824;49.648;8.640;2022-09-13T17:08:35;0.73;;;0.40;;
46086;SDS011;31824;49.648;8.640;2022-09-13T17:11:39;1.80;;;0.70;;
46086;SDS011;31824;49.648;8.640;2022-09-13T17:14:44;2.00;;;0.70;;
46086;SDS011;31824;49.648;8.640;2022-09-13T17:17:47;0.82;;;0.47;;
46086;SDS011;31824;49.648;8.640;2022-09-13T17:20:49;1.77;;;0.73;;
46086;SDS011;31824;49.648;8.640;2022-09-13T17:23:51;1.35;;;0.43;;
46086;SDS011;31824;49.648;8.640;2022-09-13T17:26:53;1.35;;;0.52;;
46086;SDS011;31824;49.648;8.640;2022-09-13T17:29:58;0.88;;;0.50;;
46086;SDS011;31824;49.648;8.640;2022-09-13T17:33:02;0.90;;;0.52;;
46086;SDS011;31824;49.648;8.640;2022-09-13T17:36:06;1.40;;;0.70;;
46086;SDS011;31824;49.648;8.640;2022-09-13T17:39:09;1.50;;;0.63;;
46086;SDS011;31824;49.648;8.640;2022-09-13T17:42:11;0.73;;;0.30;;
46086;SDS011;31824;49.648;8.640;2022-09-13T17:45:14;0.80;;;0.50;;
46086;SDS011;31824;49.648;8.640;2022-09-13T17:48:16;1.23;;;0.60;;
46086;SDS011;31824;49.648;8.640;2022-09-13T17:51:19;0.50;;;0.30;;
46086;SDS011;31824;49.648;8.640;2022-09-13T17:54:22;1.50;;;0.70;;
46086;SDS011;31824;49.648;8.640;2022-09-13T17:57:24;0.93;;;0.40;;
46086;SDS011;31824;49.648;8.640;2022-09-13T18:00:28;1.70;;;0.50;;
46086;SDS011;31824;49.648;8.640;2022-09-13T18:03:30;0.95;;;0.40;;
46086;SDS011;31824;49.648;8.640;2022-09-13T18:06:33;1.48;;;0.50;;
46086;SDS011;31824;49.648;8.640;2022-09-13T18:09:35;0.70;;;0.28;;
46086;SDS011;31824;49.648;8.640;2022-09-13T18:12:38;0.40;;;0.20;;
46086;SDS011;31824;49.648;8.640;2022-09-13T18:15:41;0.32;;;0.22;;
46086;SDS011;31824;49.648;8.640;2022-09-13T18:18:43;5.25;;;0.40;;
46086;SDS011;31824;49.648;8.640;2022-09-13T18:21:48;0.60;;;0.30;;
46086;SDS011;31824;49.648;8.640;2022-09-13T18:24:49;0.52;;;0.40;;
46086;SDS011;31824;49.648;8.640;2022-09-13T18:27:51;2.75;;;0.52;;
46086;SDS011;31824;49.648;8.640;2022-09-13T18:30:55;2.33;;;0.70;;
46086;SDS011;31824;49.648;8.640;2022-09-13T18:33:58;1.75;;;0.55;;
46086;SDS011;31824;49.648;8.640;2022-09-13T18:37:02;1.60;;;0.55;;
46086;SDS011;31824;49.648;8.640;2022-09-13T18:40:04;1.27;;;0.68;;
46086;SDS011;31824;49.648;8.640;2022-09-13T18:43:09;2.15;;;0.50;;
46086;SDS011;31824;49.648;8.640;2022-09-13T18:46:14;1.40;;;0.52;;
46086;SDS011;31824;49.648;8.640;2022-09-13T18:49:17;1.42;;;0.60;;
46086;SDS011;31824;49.648;8.640;2022-09-13T18:52:19;1.83;;;0.43;;
46086;SDS011;31824;49.648;8.640;2022-09-13T18:55:21;0.95;;;0.60;;
46086;SDS011;31824;49.648;8.640;2022-09-13T18:58:23;1.92;;;0.50;;
46086;SDS011;31824;49.648;8.640;2022-09-13T19:01:27;1.23;;;0.57;;
46086;SDS011;31824;49.648;8.640;2022-09-13T19:04:30;1.15;;;0.50;;
46086;SDS011;31824;49.648;8.640;2022-09-13T19:07:33;3.17;;;0.80;;
46086;SDS011;31824;49.648;8.640;2022-09-13T19:10:36;3.13;;;0.50;;
46086;SDS011;31824;49.648;8.640;2022-09-13T19:13:38;1.05;;;0.40;;
46086;SDS011;31824;49.648;8.640;2022-09-13T19:16:42;1.92;;;0.60;;
46086;SDS011;31824;49.648;8.640;2022-09-13T19:19:43;1.30;;;0.47;;
46086;SDS011;31824;49.648;8.640;2022-09-13T19:22:46;1.42;;;0.60;;
46086;SDS011;31824;49.648;8.640;2022-09-13T19:25:48;0.93;;;0.52;;
46086;SDS011;31824;49.648;8.640;2022-09-13T19:28:50;1.45;;;0.60;;
46086;SDS011;31824;49.648;8.640;2022-09-13T19:31:56;0.60;;;0.20;;
46086;SDS011;31824;49.648;8.640;2022-09-13T19:34:58;0.75;;;0.20;;
46086;SDS011;31824;49.648;8.640;2022-09-13T19:38:00;0.35;;;0.10;;
46086;SDS011;31824;49.648;8.640;2022-09-13T19:41:02;1.45;;;0.20;;
46086;SDS011;31824;49.648;8.640;2022-09-13T19:44:05;0.52;;;0.10;;